sensor_id;sensor_type;location;lat;lon;timestamp;P1;durP1;ratioP1;P2;durP2;ratioP2
14007;SDS011;61651;45.508;12.232;2022-09-25T00:00:57;8.18;;;7.38;;
14007;SDS011;61651;45.508;12.232;2022-09-25T00:03:59;9.27;;;7.85;;
14007;SDS011;61651;45.508;12.232;2022-09-25T00:07:02;9.18;;;7.95;;
14007;SDS011;61651;45.508;12.232;2022-09-25T00:10:04;10.20;;;8.45;;
14007;SDS011;61651;45.508;12.232;2022-09-25T00:13:08;8.27;;;7.47;;
14007;SDS011;61651;45.508;12.232;2022-09-25T00:16:12;8.70;;;7.80;;
14007;SDS011;61651;45.508;12.232;2022-09-25T00:19:20;8.50;;;7.10;;
14007;SDS011;61651;45.508;12.232;2022-09-25T00:22:39;9.25;;;7.63;;
14007;SDS011;61651;45.508;12.232;2022-09-25T00:25:42;9.10;;;8.20;;
14007;SDS011;61651;45.508;12.232;2022-09-25T00:28:56;8.30;;;7.50;;
14007;SDS011;61651;45.508;12.232;2022-09-25T00:32:00;7.35;;;6.53;;
14007;SDS011;61651;45.508;12.232;2022-09-25T00:35:02;8.10;;;7.30;;
14007;SDS011;61651;45.508;12.232;2022-09-25T00:38:05;9.10;;;8.15;;
14007;SDS011;61651;45.508;12.232;2022-09-25T00:41:07;8.05;;;7.25;;
14007;SDS011;61651;45.508;12.232;2022-09-25T00:47:47;8.40;;;7.15;;
14007;SDS011;61651;45.508;12.232;2022-09-25T00:50:54;8.75;;;7.90;;
14007;SDS011;61651;45.508;12.232;2022-09-25T00:53:58;8.13;;;7.18;;
14007;SDS011;61651;45.508;12.232;2022-09-25T00:57:05;10.13;;;7.60;;
14007;SDS011;61651;45.508;12.232;2022-09-25T01:00:10;6.97;;;6.28;;
14007;SDS011;61651;45.508;12.232;2022-09-25T01:03:15;7.40;;;6.80;;
14007;SDS011;61651;45.508;12.232;2022-09-25T01:06:17;7.82;;;7.03;;
14007;SDS011;61651;45.508;12.232;2022-09-25T01:09:20;8.38;;;7.28;;
14007;SDS011;61651;45.508;12.232;2022-09-25T01:12:23;9.10;;;7.40;;
14007;SDS011;61651;45.508;12.232;2022-09-25T01:15:26;9.05;;;7.35;;
14007;SDS011;61651;45.508;12.232;2022-09-25T01:21:59;8.55;;;7.70;;
14007;SDS011;61651;45.508;12.232;2022-09-25T01:25:10;9.80;;;6.95;;
14007;SDS011;61651;45.508;12.232;2022-09-25T01:28:35;8.75;;;7.78;;
14007;SDS011;61651;45.508;12.232;2022-09-25T01:31:52;7.85;;;7.13;;
14007;SDS011;61651;45.508;12.232;2022-09-25T01:35:03;8.32;;;7.53;;
14007;SDS011;61651;45.508;12.232;2022-09-25T01:38:15;8.45;;;7.63;;
14007;SDS011;61651;45.508;12.232;2022-09-25T01:41:25;8.10;;;7.22;;
14007;SDS011;61651;45.508;12.232;2022-09-25T01:44:31;7.88;;;7.07;;
14007;SDS011;61651;45.508;12.232;2022-09-25T01:47:37;7.47;;;6.78;;
14007;SDS011;61651;45.508;12.232;2022-09-25T01:50:41;7.45;;;6.65;;
14007;SDS011;61651;45.508;12.232;2022-09-25T01:53:47;6.43;;;5.82;;
14007;SDS011;61651;45.508;12.232;2022-09-25T01:56:54;6.60;;;5.95;;
14007;SDS011;61651;45.508;12.232;2022-09-25T02:00:05;6.47;;;5.93;;
14007;SDS011;61651;45.508;12.232;2022-09-25T02:03:10;6.88;;;6.28;;
14007;SDS011;61651;45.508;12.232;2022-09-25T02:06:17;6.90;;;5.88;;
14007;SDS011;61651;45.508;12.232;2022-09-25T02:09:21;7.05;;;6.03;;
14007;SDS011;61651;45.508;12.232;2022-09-25T02:12:29;5.70;;;5.20;;
14007;SDS011;61651;45.508;12.232;2022-09-25T02:15:36;5.60;;;4.88;;
14007;SDS011;61651;45.508;12.232;2022-09-25T02:18:40;5.93;;;4.60;;
14007;SDS011;61651;45.508;12.232;2022-09-25T02:22:01;5.47;;;5.03;;
14007;SDS011;61651;45.508;12.232;2022-09-25T02:25:09;4.28;;;3.97;;
14007;SDS011;61651;45.508;12.232;2022-09-25T02:28:17;4.53;;;4.13;;
14007;SDS011;61651;45.508;12.232;2022-09-25T02:31:21;4.55;;;4.15;;
14007;SDS011;61651;45.508;12.232;2022-09-25T02:34:25;3.50;;;3.20;;
14007;SDS011;61651;45.508;12.232;2022-09-25T02:37:27;2.92;;;2.72;;
14007;SDS011;61651;45.508;12.232;2022-09-25T02:40:32;3.42;;;2.97;;
14007;SDS011;61651;45.508;12.232;2022-09-25T02:43:41;3.17;;;2.60;;
14007;SDS011;61651;45.508;12.232;2022-09-25T02:46:49;4.07;;;2.70;;
14007;SDS011;61651;45.508;12.232;2022-09-25T02:50:01;3.13;;;2.25;;
14007;SDS011;61651;45.508;12.232;2022-09-25T02:53:11;2.35;;;2.15;;
14007;SDS011;61651;45.508;12.232;2022-09-25T02:56:22;2.30;;;2.10;;
14007;SDS011;61651;45.508;12.232;2022-09-25T02:59:32;2.15;;;2.00;;
14007;SDS011;61651;45.508;12.232;2022-09-25T03:02:39;2.42;;;1.90;;
14007;SDS011;61651;45.508;12.232;2022-09-25T03:05:43;1.95;;;1.85;;
14007;SDS011;61651;45.508;12.232;2022-09-25T03:08:48;1.98;;;1.80;;
14007;SDS011;61651;45.508;12.232;2022-09-25T03:11:55;2.30;;;2.10;;
14007;SDS011;61651;45.508;12.232;2022-09-25T03:14:58;2.25;;;2.00;;
14007;SDS011;61651;45.508;12.232;2022-09-25T03:18:01;3.28;;;1.85;;
14007;SDS011;61651;45.508;12.232;2022-09-25T03:21:03;1.85;;;1.75;;
14007;SDS011;61651;45.508;12.232;2022-09-25T03:24:05;2.00;;;1.80;;
14007;SDS011;61651;45.508;12.232;2022-09-25T03:27:07;2.35;;;1.95;;
14007;SDS011;61651;45.508;12.232;2022-09-25T03:30:09;1.50;;;1.40;;
14007;SDS011;61651;45.508;12.232;2022-09-25T03:33:13;1.55;;;1.45;;
14007;SDS011;61651;45.508;12.232;2022-09-25T03:36:17;1.50;;;1.40;;
14007;SDS011;61651;45.508;12.232;2022-09-25T03:39:20;1.50;;;1.40;;
14007;SDS011;61651;45.508;12.232;2022-09-25T03:42:22;1.67;;;1.58;;
14007;SDS011;61651;45.508;12.232;2022-09-25T03:45:27;1.23;;;1.23;;
14007;SDS011;61651;45.508;12.232;2022-09-25T03:48:30;2.10;;;1.35;;
14007;SDS011;61651;45.508;12.232;2022-09-25T03:51:32;1.40;;;1.30;;
14007;SDS011;61651;45.508;12.232;2022-09-25T03:54:34;1.02;;;1.00;;
14007;SDS011;61651;45.508;12.232;2022-09-25T03:57:36;1.20;;;1.10;;
14007;SDS011;61651;45.508;12.232;2022-09-25T04:00:39;1.27;;;1.20;;
14007;SDS011;61651;45.508;12.232;2022-09-25T04:03:42;3.60;;;1.40;;
14007;SDS011;61651;45.508;12.232;2022-09-25T04:06:46;1.10;;;1.00;;
14007;SDS011;61651;45.508;12.232;2022-09-25T04:09:48;1.73;;;1.40;;
14007;SDS011;61651;45.508;12.232;2022-09-25T04:12:50;1.30;;;1.20;;
14007;SDS011;61651;45.508;12.232;2022-09-25T04:15:53;1.00;;;1.00;;
14007;SDS011;61651;45.508;12.232;2022-09-25T04:18:57;1.20;;;1.10;;
14007;SDS011;61651;45.508;12.232;2022-09-25T04:21:58;1.40;;;1.30;;
14007;SDS011;61651;45.508;12.232;2022-09-25T04:25:00;1.02;;;1.00;;
14007;SDS011;61651;45.508;12.232;2022-09-25T04:28:02;1.15;;;1.10;;
14007;SDS011;61651;45.508;12.232;2022-09-25T04:31:06;2.15;;;1.10;;
14007;SDS011;61651;45.508;12.232;2022-09-25T04:34:09;1.23;;;1.20;;
14007;SDS011;61651;45.508;12.232;2022-09-25T04:37:10;1.00;;;1.00;;
14007;SDS011;61651;45.508;12.232;2022-09-25T04:40:13;1.15;;;1.05;;
14007;SDS011;61651;45.508;12.232;2022-09-25T04:43:15;2.80;;;1.20;;
14007;SDS011;61651;45.508;12.232;2022-09-25T04:46:17;1.02;;;1.02;;
14007;SDS011;61651;45.508;12.232;2022-09-25T04:49:21;1.10;;;1.10;;
14007;SDS011;61651;45.508;12.232;2022-09-25T04:52:23;1.30;;;1.20;;
14007;SDS011;61651;45.508;12.232;2022-09-25T04:55:25;1.25;;;1.15;;
14007;SDS011;61651;45.508;12.232;2022-09-25T04:58:27;1.30;;;1.20;;
14007;SDS011;61651;45.508;12.232;2022-09-25T05:01:29;1.20;;;1.10;;
14007;SDS011;61651;45.508;12.232;2022-09-25T05:04:32;4.75;;;1.38;;
14007;SDS011;61651;45.508;12.232;2022-09-25T05:07:34;1.00;;;1.00;;
14007;SDS011;61651;45.508;12.232;2022-09-25T05:10:36;1.50;;;1.40;;
14007;SDS011;61651;45.508;12.232;2022-09-25T05:13:40;2.00;;;1.10;;
14007;SDS011;61651;45.508;12.232;2022-09-25T05:16:45;1.50;;;1.30;;
14007;SDS011;61651;45.508;12.232;2022-09-25T05:19:48;1.30;;;1.20;;
14007;SDS011;61651;45.508;12.232;2022-09-25T05:22:52;1.55;;;1.23;;
14007;SDS011;61651;45.508;12.232;2022-09-25T05:25:55;2.40;;;1.40;;
14007;SDS011;61651;45.508;12.232;2022-09-25T05:29:01;1.73;;;1.63;;
14007;SDS011;61651;45.508;12.232;2022-09-25T05:32:03;1.30;;;1.20;;
14007;SDS011;61651;45.508;12.232;2022-09-25T05:35:07;3.10;;;1.27;;
14007;SDS011;61651;45.508;12.232;2022-09-25T05:38:10;1.70;;;1.60;;
14007;SDS011;61651;45.508;12.232;2022-09-25T05:41:12;1.60;;;1.50;;
14007;SDS011;61651;45.508;12.232;2022-09-25T05:44:14;2.33;;;1.60;;
14007;SDS011;61651;45.508;12.232;2022-09-25T05:47:16;1.60;;;1.50;;
14007;SDS011;61651;45.508;12.232;2022-09-25T05:50:19;1.88;;;1.40;;
14007;SDS011;61651;45.508;12.232;2022-09-25T05:53:21;2.25;;;1.58;;
14007;SDS011;61651;45.508;12.232;2022-09-25T05:56:24;2.05;;;1.83;;
14007;SDS011;61651;45.508;12.232;2022-09-25T05:59:26;1.60;;;1.50;;
14007;SDS011;61651;45.508;12.232;2022-09-25T06:02:28;2.22;;;1.80;;
14007;SDS011;61651;45.508;12.232;2022-09-25T06:05:31;1.60;;;1.50;;
14007;SDS011;61651;45.508;12.232;2022-09-25T06:08:33;1.80;;;1.70;;
14007;SDS011;61651;45.508;12.232;2022-09-25T06:11:36;1.92;;;1.83;;
14007;SDS011;61651;45.508;12.232;2022-09-25T06:14:39;2.10;;;1.90;;
14007;SDS011;61651;45.508;12.232;2022-09-25T06:17:41;2.33;;;2.13;;
14007;SDS011;61651;45.508;12.232;2022-09-25T06:20:45;2.20;;;2.08;;
14007;SDS011;61651;45.508;12.232;2022-09-25T06:23:47;2.63;;;2.42;;
14007;SDS011;61651;45.508;12.232;2022-09-25T06:26:49;2.60;;;2.33;;
14007;SDS011;61651;45.508;12.232;2022-09-25T06:29:51;2.13;;;1.92;;
14007;SDS011;61651;45.508;12.232;2022-09-25T06:32:55;2.30;;;2.10;;
14007;SDS011;61651;45.508;12.232;2022-09-25T06:35:58;2.40;;;2.20;;
14007;SDS011;61651;45.508;12.232;2022-09-25T06:39:00;2.03;;;1.92;;
14007;SDS011;61651;45.508;12.232;2022-09-25T06:42:02;2.53;;;2.30;;
14007;SDS011;61651;45.508;12.232;2022-09-25T06:45:05;1.73;;;1.63;;
14007;SDS011;61651;45.508;12.232;2022-09-25T06:48:11;2.13;;;1.90;;
14007;SDS011;61651;45.508;12.232;2022-09-25T06:51:16;3.17;;;2.10;;
14007;SDS011;61651;45.508;12.232;2022-09-25T06:54:18;1.80;;;1.70;;
14007;SDS011;61651;45.508;12.232;2022-09-25T06:57:20;2.42;;;2.08;;
14007;SDS011;61651;45.508;12.232;2022-09-25T07:00:22;1.85;;;1.75;;
14007;SDS011;61651;45.508;12.232;2022-09-25T07:03:24;1.77;;;1.67;;
14007;SDS011;61651;45.508;12.232;2022-09-25T07:06:46;2.20;;;2.00;;
14007;SDS011;61651;45.508;12.232;2022-09-25T07:09:48;1.42;;;1.33;;
14007;SDS011;61651;45.508;12.232;2022-09-25T07:12:50;2.08;;;1.42;;
14007;SDS011;61651;45.508;12.232;2022-09-25T07:15:52;1.98;;;1.88;;
14007;SDS011;61651;45.508;12.232;2022-09-25T07:18:56;1.67;;;1.58;;
14007;SDS011;61651;45.508;12.232;2022-09-25T07:22:01;1.73;;;1.52;;
14007;SDS011;61651;45.508;12.232;2022-09-25T07:25:04;1.55;;;1.45;;
14007;SDS011;61651;45.508;12.232;2022-09-25T07:28:07;1.50;;;1.40;;
14007;SDS011;61651;45.508;12.232;2022-09-25T07:31:10;1.40;;;1.30;;
14007;SDS011;61651;45.508;12.232;2022-09-25T07:34:16;1.27;;;1.17;;
14007;SDS011;61651;45.508;12.232;2022-09-25T07:37:19;1.48;;;1.38;;
14007;SDS011;61651;45.508;12.232;2022-09-25T07:40:21;1.40;;;1.30;;
14007;SDS011;61651;45.508;12.232;2022-09-25T07:43:23;1.40;;;1.35;;
14007;SDS011;61651;45.508;12.232;2022-09-25T07:46:25;2.33;;;1.30;;
14007;SDS011;61651;45.508;12.232;2022-09-25T07:49:28;1.30;;;1.20;;
14007;SDS011;61651;45.508;12.232;2022-09-25T07:52:31;1.20;;;1.20;;
14007;SDS011;61651;45.508;12.232;2022-09-25T07:55:33;1.25;;;1.17;;
14007;SDS011;61651;45.508;12.232;2022-09-25T07:58:35;1.17;;;1.10;;
14007;SDS011;61651;45.508;12.232;2022-09-25T08:01:37;1.20;;;1.20;;
14007;SDS011;61651;45.508;12.232;2022-09-25T08:04:39;1.10;;;1.10;;
14007;SDS011;61651;45.508;12.232;2022-09-25T08:07:43;1.40;;;1.30;;
14007;SDS011;61651;45.508;12.232;2022-09-25T08:10:45;1.08;;;1.08;;
14007;SDS011;61651;45.508;12.232;2022-09-25T08:13:47;1.00;;;1.00;;
14007;SDS011;61651;45.508;12.232;2022-09-25T08:16:49;0.90;;;0.90;;
14007;SDS011;61651;45.508;12.232;2022-09-25T08:19:54;1.15;;;1.15;;
14007;SDS011;61651;45.508;12.232;2022-09-25T08:22:57;0.90;;;0.90;;
14007;SDS011;61651;45.508;12.232;2022-09-25T08:25:59;1.10;;;1.10;;
14007;SDS011;61651;45.508;12.232;2022-09-25T08:29:01;1.10;;;1.10;;
14007;SDS011;61651;45.508;12.232;2022-09-25T08:32:04;0.98;;;0.90;;
14007;SDS011;61651;45.508;12.232;2022-09-25T08:35:06;0.80;;;0.80;;
14007;SDS011;61651;45.508;12.232;2022-09-25T08:38:10;0.90;;;0.90;;
14007;SDS011;61651;45.508;12.232;2022-09-25T08:41:13;0.90;;;0.90;;
14007;SDS011;61651;45.508;12.232;2022-09-25T08:44:19;0.80;;;0.80;;
14007;SDS011;61651;45.508;12.232;2022-09-25T08:47:25;0.80;;;0.80;;
14007;SDS011;61651;45.508;12.232;2022-09-25T08:50:46;0.80;;;0.80;;
14007;SDS011;61651;45.508;12.232;2022-09-25T08:53:51;0.90;;;0.90;;
14007;SDS011;61651;45.508;12.232;2022-09-25T08:56:54;1.10;;;1.10;;
14007;SDS011;61651;45.508;12.232;2022-09-25T09:00:00;0.88;;;0.88;;
14007;SDS011;61651;45.508;12.232;2022-09-25T09:03:07;0.90;;;0.90;;
14007;SDS011;61651;45.508;12.232;2022-09-25T09:06:11;0.90;;;0.90;;
14007;SDS011;61651;45.508;12.232;2022-09-25T09:09:18;1.15;;;1.05;;
14007;SDS011;61651;45.508;12.232;2022-09-25T09:12:24;1.02;;;1.02;;
14007;SDS011;61651;45.508;12.232;2022-09-25T09:15:33;1.42;;;1.33;;
14007;SDS011;61651;45.508;12.232;2022-09-25T09:18:39;1.55;;;1.45;;
14007;SDS011;61651;45.508;12.232;2022-09-25T09:21:44;3.08;;;1.38;;
14007;SDS011;61651;45.508;12.232;2022-09-25T09:25:00;1.20;;;1.20;;
14007;SDS011;61651;45.508;12.232;2022-09-25T09:28:14;1.70;;;1.60;;
14007;SDS011;61651;45.508;12.232;2022-09-25T09:31:27;2.25;;;1.30;;
14007;SDS011;61651;45.508;12.232;2022-09-25T09:38:01;1.95;;;1.25;;
14007;SDS011;61651;45.508;12.232;2022-09-25T09:41:14;1.42;;;1.33;;
14007;SDS011;61651;45.508;12.232;2022-09-25T09:44:25;1.50;;;1.40;;
14007;SDS011;61651;45.508;12.232;2022-09-25T09:47:39;1.30;;;1.20;;
14007;SDS011;61651;45.508;12.232;2022-09-25T09:50:47;1.58;;;1.48;;
14007;SDS011;61651;45.508;12.232;2022-09-25T09:53:52;1.60;;;1.50;;
14007;SDS011;61651;45.508;12.232;2022-09-25T09:56:58;1.38;;;1.27;;
14007;SDS011;61651;45.508;12.232;2022-09-25T10:00:04;2.78;;;1.40;;
14007;SDS011;61651;45.508;12.232;2022-09-25T10:03:13;1.40;;;1.30;;
14007;SDS011;61651;45.508;12.232;2022-09-25T10:06:19;1.52;;;1.42;;
14007;SDS011;61651;45.508;12.232;2022-09-25T10:09:26;1.60;;;1.50;;
14007;SDS011;61651;45.508;12.232;2022-09-25T10:12:30;1.40;;;1.30;;
14007;SDS011;61651;45.508;12.232;2022-09-25T10:15:35;1.90;;;1.40;;
14007;SDS011;61651;45.508;12.232;2022-09-25T10:18:42;1.88;;;1.77;;
14007;SDS011;61651;45.508;12.232;2022-09-25T10:21:49;2.03;;;1.60;;
14007;SDS011;61651;45.508;12.232;2022-09-25T10:24:54;1.50;;;1.40;;
14007;SDS011;61651;45.508;12.232;2022-09-25T10:28:03;1.52;;;1.42;;
14007;SDS011;61651;45.508;12.232;2022-09-25T10:31:23;1.88;;;1.75;;
14007;SDS011;61651;45.508;12.232;2022-09-25T10:34:28;2.28;;;1.50;;
14007;SDS011;61651;45.508;12.232;2022-09-25T10:37:31;1.60;;;1.50;;
14007;SDS011;61651;45.508;12.232;2022-09-25T10:40:37;1.20;;;1.10;;
14007;SDS011;61651;45.508;12.232;2022-09-25T10:43:51;1.50;;;1.40;;
14007;SDS011;61651;45.508;12.232;2022-09-25T10:46:54;1.40;;;1.30;;
14007;SDS011;61651;45.508;12.232;2022-09-25T10:50:15;1.23;;;1.20;;
14007;SDS011;61651;45.508;12.232;2022-09-25T10:53:23;1.13;;;1.10;;
14007;SDS011;61651;45.508;12.232;2022-09-25T10:56:29;3.58;;;1.70;;
14007;SDS011;61651;45.508;12.232;2022-09-25T10:59:39;1.95;;;1.70;;
14007;SDS011;61651;45.508;12.232;2022-09-25T11:02:48;1.48;;;1.38;;
14007;SDS011;61651;45.508;12.232;2022-09-25T11:05:53;1.58;;;1.42;;
14007;SDS011;61651;45.508;12.232;2022-09-25T11:09:03;1.90;;;1.80;;
14007;SDS011;61651;45.508;12.232;2022-09-25T11:12:10;1.55;;;1.40;;
14007;SDS011;61651;45.508;12.232;2022-09-25T11:15:19;1.85;;;1.75;;
14007;SDS011;61651;45.508;12.232;2022-09-25T11:18:33;1.80;;;1.70;;
14007;SDS011;61651;45.508;12.232;2022-09-25T11:21:38;3.95;;;2.20;;
14007;SDS011;61651;45.508;12.232;2022-09-25T11:24:51;2.33;;;1.88;;
14007;SDS011;61651;45.508;12.232;2022-09-25T11:28:01;2.20;;;1.63;;
14007;SDS011;61651;45.508;12.232;2022-09-25T11:31:13;1.85;;;1.60;;
14007;SDS011;61651;45.508;12.232;2022-09-25T11:34:24;1.95;;;1.58;;
14007;SDS011;61651;45.508;12.232;2022-09-25T11:37:36;2.25;;;1.50;;
14007;SDS011;61651;45.508;12.232;2022-09-25T11:40:51;1.40;;;1.30;;
14007;SDS011;61651;45.508;12.232;2022-09-25T11:44:14;1.73;;;1.63;;
14007;SDS011;61651;45.508;12.232;2022-09-25T11:47:30;1.50;;;1.40;;
14007;SDS011;61651;45.508;12.232;2022-09-25T11:50:40;1.33;;;1.23;;
14007;SDS011;61651;45.508;12.232;2022-09-25T11:53:50;1.60;;;1.50;;
14007;SDS011;61651;45.508;12.232;2022-09-25T11:57:05;2.35;;;1.60;;
14007;SDS011;61651;45.508;12.232;2022-09-25T12:00:13;1.63;;;1.52;;
14007;SDS011;61651;45.508;12.232;2022-09-25T12:03:27;1.08;;;1.08;;
14007;SDS011;61651;45.508;12.232;2022-09-25T12:06:49;2.15;;;1.38;;
14007;SDS011;61651;45.508;12.232;2022-09-25T12:10:03;1.45;;;1.35;;
14007;SDS011;61651;45.508;12.232;2022-09-25T12:13:21;1.38;;;1.27;;
14007;SDS011;61651;45.508;12.232;2022-09-25T12:16:37;1.73;;;1.40;;
14007;SDS011;61651;45.508;12.232;2022-09-25T12:19:49;2.03;;;1.50;;
14007;SDS011;61651;45.508;12.232;2022-09-25T12:23:03;1.30;;;1.23;;
14007;SDS011;61651;45.508;12.232;2022-09-25T12:26:16;1.95;;;1.50;;
14007;SDS011;61651;45.508;12.232;2022-09-25T12:29:29;1.73;;;1.42;;
14007;SDS011;61651;45.508;12.232;2022-09-25T12:33:03;1.70;;;1.30;;
14007;SDS011;61651;45.508;12.232;2022-09-25T12:36:18;3.20;;;1.80;;
14007;SDS011;61651;45.508;12.232;2022-09-25T12:39:25;1.27;;;1.25;;
14007;SDS011;61651;45.508;12.232;2022-09-25T12:42:44;1.40;;;1.30;;
14007;SDS011;61651;45.508;12.232;2022-09-25T12:45:51;3.30;;;1.40;;
14007;SDS011;61651;45.508;12.232;2022-09-25T12:49:00;1.40;;;1.30;;
14007;SDS011;61651;45.508;12.232;2022-09-25T12:52:10;1.40;;;1.30;;
14007;SDS011;61651;45.508;12.232;2022-09-25T12:55:16;3.03;;;1.40;;
14007;SDS011;61651;45.508;12.232;2022-09-25T12:58:28;1.40;;;1.30;;
14007;SDS011;61651;45.508;12.232;2022-09-25T13:01:41;1.48;;;1.33;;
14007;SDS011;61651;45.508;12.232;2022-09-25T13:04:53;3.67;;;1.80;;
14007;SDS011;61651;45.508;12.232;2022-09-25T13:08:04;1.50;;;1.40;;
14007;SDS011;61651;45.508;12.232;2022-09-25T13:11:15;2.53;;;1.35;;
14007;SDS011;61651;45.508;12.232;2022-09-25T13:14:34;1.40;;;1.30;;
14007;SDS011;61651;45.508;12.232;2022-09-25T13:17:40;1.40;;;1.30;;
14007;SDS011;61651;45.508;12.232;2022-09-25T13:20:46;2.03;;;1.35;;
14007;SDS011;61651;45.508;12.232;2022-09-25T13:23:51;1.55;;;1.45;;
14007;SDS011;61651;45.508;12.232;2022-09-25T13:26:57;1.20;;;1.08;;
14007;SDS011;61651;45.508;12.232;2022-09-25T13:30:02;1.50;;;1.40;;
14007;SDS011;61651;45.508;12.232;2022-09-25T13:33:12;1.30;;;1.20;;
14007;SDS011;61651;45.508;12.232;2022-09-25T13:36:34;1.40;;;1.30;;
14007;SDS011;61651;45.508;12.232;2022-09-25T13:39:41;1.48;;;1.38;;
14007;SDS011;61651;45.508;12.232;2022-09-25T13:46:28;1.23;;;1.13;;
14007;SDS011;61651;45.508;12.232;2022-09-25T13:49:33;1.30;;;1.20;;
14007;SDS011;61651;45.508;12.232;2022-09-25T13:52:49;1.55;;;1.20;;
14007;SDS011;61651;45.508;12.232;2022-09-25T13:56:44;1.10;;;1.10;;
14007;SDS011;61651;45.508;12.232;2022-09-25T13:59:48;1.55;;;1.35;;
14007;SDS011;61651;45.508;12.232;2022-09-25T14:03:02;1.63;;;1.30;;
14007;SDS011;61651;45.508;12.232;2022-09-25T14:06:08;1.13;;;1.08;;
14007;SDS011;61651;45.508;12.232;2022-09-25T14:09:13;1.10;;;1.10;;
14007;SDS011;61651;45.508;12.232;2022-09-25T14:15:41;2.35;;;1.40;;
14007;SDS011;61651;45.508;12.232;2022-09-25T14:18:45;1.40;;;1.30;;
14007;SDS011;61651;45.508;12.232;2022-09-25T14:21:49;1.20;;;1.20;;
14007;SDS011;61651;45.508;12.232;2022-09-25T14:24:52;1.35;;;1.25;;
14007;SDS011;61651;45.508;12.232;2022-09-25T14:27:55;1.40;;;1.30;;
14007;SDS011;61651;45.508;12.232;2022-09-25T14:31:01;1.40;;;1.30;;
14007;SDS011;61651;45.508;12.232;2022-09-25T14:34:29;1.45;;;1.35;;
14007;SDS011;61651;45.508;12.232;2022-09-25T14:37:45;1.60;;;1.50;;
14007;SDS011;61651;45.508;12.232;2022-09-25T14:41:02;1.33;;;1.23;;
14007;SDS011;61651;45.508;12.232;2022-09-25T14:47:50;1.92;;;1.40;;
14007;SDS011;61651;45.508;12.232;2022-09-25T14:50:56;1.50;;;1.40;;
14007;SDS011;61651;45.508;12.232;2022-09-25T14:54:00;1.70;;;1.60;;
14007;SDS011;61651;45.508;12.232;2022-09-25T14:57:06;1.77;;;1.50;;
14007;SDS011;61651;45.508;12.232;2022-09-25T15:00:14;1.60;;;1.50;;
14007;SDS011;61651;45.508;12.232;2022-09-25T15:03:19;1.63;;;1.52;;
14007;SDS011;61651;45.508;12.232;2022-09-25T15:06:26;2.00;;;1.90;;
14007;SDS011;61651;45.508;12.232;2022-09-25T15:09:34;1.57;;;1.47;;
14007;SDS011;61651;45.508;12.232;2022-09-25T15:12:42;1.95;;;1.85;;
14007;SDS011;61651;45.508;12.232;2022-09-25T15:15:47;2.67;;;1.98;;
14007;SDS011;61651;45.508;12.232;2022-09-25T15:19:12;2.05;;;1.95;;
14007;SDS011;61651;45.508;12.232;2022-09-25T15:22:20;1.90;;;1.70;;
14007;SDS011;61651;45.508;12.232;2022-09-25T15:25:25;1.92;;;1.75;;
14007;SDS011;61651;45.508;12.232;2022-09-25T15:28:30;2.97;;;2.00;;
14007;SDS011;61651;45.508;12.232;2022-09-25T15:31:40;2.03;;;1.90;;
14007;SDS011;61651;45.508;12.232;2022-09-25T15:34:49;2.30;;;2.20;;
14007;SDS011;61651;45.508;12.232;2022-09-25T15:38:09;2.25;;;2.05;;
14007;SDS011;61651;45.508;12.232;2022-09-25T15:41:13;1.92;;;1.83;;
14007;SDS011;61651;45.508;12.232;2022-09-25T15:44:17;2.35;;;2.08;;
14007;SDS011;61651;45.508;12.232;2022-09-25T15:51:12;2.63;;;1.90;;
14007;SDS011;61651;45.508;12.232;2022-09-25T15:54:20;2.22;;;1.90;;
14007;SDS011;61651;45.508;12.232;2022-09-25T15:57:35;2.60;;;2.28;;
14007;SDS011;61651;45.508;12.232;2022-09-25T16:00:37;1.98;;;1.75;;
14007;SDS011;61651;45.508;12.232;2022-09-25T16:03:58;2.00;;;1.73;;
14007;SDS011;61651;45.508;12.232;2022-09-25T16:07:23;2.28;;;1.80;;
14007;SDS011;61651;45.508;12.232;2022-09-25T16:10:30;1.80;;;1.70;;
14007;SDS011;61651;45.508;12.232;2022-09-25T16:13:33;3.22;;;2.08;;
14007;SDS011;61651;45.508;12.232;2022-09-25T16:16:44;2.50;;;2.30;;
14007;SDS011;61651;45.508;12.232;2022-09-25T16:19:57;1.95;;;1.77;;
14007;SDS011;61651;45.508;12.232;2022-09-25T16:23:03;2.00;;;1.90;;
14007;SDS011;61651;45.508;12.232;2022-09-25T16:26:12;1.52;;;1.42;;
14007;SDS011;61651;45.508;12.232;2022-09-25T16:29:18;1.60;;;1.50;;
14007;SDS011;61651;45.508;12.232;2022-09-25T16:32:22;1.95;;;1.85;;
14007;SDS011;61651;45.508;12.232;2022-09-25T16:35:29;4.22;;;1.90;;
14007;SDS011;61651;45.508;12.232;2022-09-25T16:38:35;1.67;;;1.58;;
14007;SDS011;61651;45.508;12.232;2022-09-25T16:41:45;1.70;;;1.60;;
14007;SDS011;61651;45.508;12.232;2022-09-25T16:44:48;2.40;;;1.60;;
14007;SDS011;61651;45.508;12.232;2022-09-25T16:47:50;2.50;;;1.63;;
14007;SDS011;61651;45.508;12.232;2022-09-25T16:50:54;2.03;;;1.80;;
14007;SDS011;61651;45.508;12.232;2022-09-25T16:53:58;1.70;;;1.60;;
14007;SDS011;61651;45.508;12.232;2022-09-25T16:57:00;2.80;;;2.00;;
14007;SDS011;61651;45.508;12.232;2022-09-25T17:00:04;2.00;;;1.83;;
14007;SDS011;61651;45.508;12.232;2022-09-25T17:03:07;3.25;;;1.73;;
14007;SDS011;61651;45.508;12.232;2022-09-25T17:06:12;2.35;;;1.85;;
14007;SDS011;61651;45.508;12.232;2022-09-25T17:09:15;1.70;;;1.60;;
14007;SDS011;61651;45.508;12.232;2022-09-25T17:12:18;1.83;;;1.73;;
14007;SDS011;61651;45.508;12.232;2022-09-25T17:15:24;2.10;;;2.00;;
14007;SDS011;61651;45.508;12.232;2022-09-25T17:18:31;4.18;;;3.78;;
14007;SDS011;61651;45.508;12.232;2022-09-25T17:21:35;2.67;;;2.22;;
14007;SDS011;61651;45.508;12.232;2022-09-25T17:24:37;2.53;;;2.33;;
14007;SDS011;61651;45.508;12.232;2022-09-25T17:27:39;2.40;;;2.20;;
14007;SDS011;61651;45.508;12.232;2022-09-25T17:30:41;2.40;;;2.20;;
14007;SDS011;61651;45.508;12.232;2022-09-25T17:33:44;3.00;;;2.72;;
14007;SDS011;61651;45.508;12.232;2022-09-25T17:36:48;3.63;;;3.25;;
14007;SDS011;61651;45.508;12.232;2022-09-25T17:39:50;3.90;;;3.60;;
14007;SDS011;61651;45.508;12.232;2022-09-25T17:42:52;4.25;;;3.22;;
14007;SDS011;61651;45.508;12.232;2022-09-25T17:45:54;4.53;;;3.42;;
14007;SDS011;61651;45.508;12.232;2022-09-25T17:48:58;4.38;;;3.53;;
14007;SDS011;61651;45.508;12.232;2022-09-25T17:52:03;4.22;;;3.92;;
14007;SDS011;61651;45.508;12.232;2022-09-25T17:55:08;4.50;;;4.10;;
14007;SDS011;61651;45.508;12.232;2022-09-25T17:58:16;4.80;;;4.22;;
14007;SDS011;61651;45.508;12.232;2022-09-25T18:01:22;3.67;;;3.38;;
14007;SDS011;61651;45.508;12.232;2022-09-25T18:04:25;3.42;;;3.17;;
14007;SDS011;61651;45.508;12.232;2022-09-25T18:07:29;3.88;;;3.58;;
14007;SDS011;61651;45.508;12.232;2022-09-25T18:10:31;3.13;;;2.90;;
14007;SDS011;61651;45.508;12.232;2022-09-25T18:13:33;3.85;;;3.38;;
14007;SDS011;61651;45.508;12.232;2022-09-25T18:16:35;3.60;;;3.30;;
14007;SDS011;61651;45.508;12.232;2022-09-25T18:19:37;3.53;;;3.22;;
14007;SDS011;61651;45.508;12.232;2022-09-25T18:22:56;4.05;;;3.75;;
14007;SDS011;61651;45.508;12.232;2022-09-25T18:25:59;4.70;;;4.15;;
14007;SDS011;61651;45.508;12.232;2022-09-25T18:29:01;4.45;;;4.15;;
14007;SDS011;61651;45.508;12.232;2022-09-25T18:32:04;4.82;;;4.43;;
14007;SDS011;61651;45.508;12.232;2022-09-25T18:35:07;6.25;;;4.35;;
14007;SDS011;61651;45.508;12.232;2022-09-25T18:38:16;4.97;;;4.57;;
14007;SDS011;61651;45.508;12.232;2022-09-25T18:41:19;5.18;;;4.45;;
14007;SDS011;61651;45.508;12.232;2022-09-25T18:44:22;6.05;;;4.57;;
14007;SDS011;61651;45.508;12.232;2022-09-25T18:47:26;4.82;;;4.40;;
14007;SDS011;61651;45.508;12.232;2022-09-25T18:50:31;4.65;;;4.15;;